sensor_id;sensor_type;location;lat;lon;timestamp;pressure;altitude;pressure_sealevel;temperature;humidity
35704;BME280;21820;51.112;13.762;2022-11-02T00:03:42;99863.47;;;21.47;61.95
35704;BME280;21820;51.112;13.762;2022-11-02T00:06:07;99863.31;;;21.49;61.98
35704;BME280;21820;51.112;13.762;2022-11-02T00:08:32;99859.06;;;21.48;61.80
35704;BME280;21820;51.112;13.762;2022-11-02T00:10:58;99854.09;;;21.45;62.16
35704;BME280;21820;51.112;13.762;2022-11-02T00:13:23;99862.66;;;21.47;62.09
35704;BME280;21820;51.112;13.762;2022-11-02T00:15:48;99863.59;;;21.46;62.03
35704;BME280;21820;51.112;13.762;2022-11-02T00:18:13;99864.72;;;21.43;62.17
35704;BME280;21820;51.112;13.762;2022-11-02T00:20:39;99868.25;;;21.42;62.63
35704;BME280;21820;51.112;13.762;2022-11-02T00:23:05;99873.22;;;21.45;62.25
35704;BME280;21820;51.112;13.762;2022-11-02T00:25:35;99858.75;;;21.32;62.24
35704;BME280;21820;51.112;13.762;2022-11-02T00:28:02;99861.94;;;21.35;62.06
35704;BME280;21820;51.112;13.762;2022-11-02T00:30:27;99882.31;;;21.41;61.81
35704;BME280;21820;51.112;13.762;2022-11-02T00:32:52;99879.44;;;21.44;62.50
35704;BME280;21820;51.112;13.762;2022-11-02T00:35:18;99881.06;;;21.45;62.44
35704;BME280;21820;51.112;13.762;2022-11-02T00:37:43;99884.66;;;21.44;61.81
35704;BME280;21820;51.112;13.762;2022-11-02T00:40:08;99884.66;;;21.44;61.68
35704;BME280;21820;51.112;13.762;2022-11-02T00:42:33;99877.78;;;21.43;61.76
35704;BME280;21820;51.112;13.762;2022-11-02T00:44:59;99886.56;;;21.42;62.13
35704;BME280;21820;51.112;13.762;2022-11-02T00:47:24;99872.38;;;21.35;61.79
35704;BME280;21820;51.112;13.762;2022-11-02T00:49:49;99883.00;;;21.43;62.00
35704;BME280;21820;51.112;13.762;2022-11-02T00:52:14;99884.09;;;21.41;62.26
35704;BME280;21820;51.112;13.762;2022-11-02T00:54:40;99881.59;;;21.39;61.92
35704;BME280;21820;51.112;13.762;2022-11-02T00:57:05;99886.84;;;21.39;62.29
35704;BME280;21820;51.112;13.762;2022-11-02T00:59:30;99891.81;;;21.42;62.35
35704;BME280;21820;51.112;13.762;2022-11-02T01:01:55;99883.00;;;21.43;61.63
35704;BME280;21820;51.112;13.762;2022-11-02T01:04:21;99885.50;;;21.45;62.25
35704;BME280;21820;51.112;13.762;2022-11-02T01:06:46;99857.63;;;21.34;62.11
35704;BME280;21820;51.112;13.762;2022-11-02T01:09:12;99879.44;;;21.44;61.99
35704;BME280;21820;51.112;13.762;2022-11-02T01:11:38;99882.75;;;21.46;62.24
35704;BME280;21820;51.112;13.762;2022-11-02T01:14:04;99883.81;;;21.44;61.69
35704;BME280;21820;51.112;13.762;2022-11-02T01:16:29;99883.81;;;21.44;62.17
35704;BME280;21820;51.112;13.762;2022-11-02T01:18:55;99857.91;;;21.31;61.65
35704;BME280;21820;51.112;13.762;2022-11-02T01:21:20;99880.41;;;21.43;61.82
35704;BME280;21820;51.112;13.762;2022-11-02T01:23:46;99881.34;;;21.42;61.45
35704;BME280;21820;51.112;13.762;2022-11-02T01:26:11;99861.50;;;21.30;62.27
35704;BME280;21820;51.112;13.762;2022-11-02T01:28:37;99879.13;;;21.38;62.20
35704;BME280;21820;51.112;13.762;2022-11-02T01:31:03;99870.56;;;21.36;61.66
35704;BME280;21820;51.112;13.762;2022-11-02T01:33:29;99879.25;;;21.36;62.25
35704;BME280;21820;51.112;13.762;2022-11-02T01:35:54;99876.38;;;21.39;62.09
35704;BME280;21820;51.112;13.762;2022-11-02T01:38:19;99869.22;;;21.41;61.93
35704;BME280;21820;51.112;13.762;2022-11-02T01:40:45;99868.25;;;21.42;62.02
35704;BME280;21820;51.112;13.762;2022-11-02T01:43:17;99863.31;;;21.39;61.93
35704;BME280;21820;51.112;13.762;2022-11-02T01:45:42;99863.31;;;21.39;61.61
35704;BME280;21820;51.112;13.762;2022-11-02T01:48:07;99859.59;;;21.42;61.45
35704;BME280;21820;51.112;13.762;2022-11-02T01:50:33;99857.00;;;21.42;61.48
35704;BME280;21820;51.112;13.762;2022-11-02T01:52:58;99858.78;;;21.41;61.78
35704;BME280;21820;51.112;13.762;2022-11-02T01:55:25;99861.53;;;21.40;62.37
35704;BME280;21820;51.112;13.762;2022-11-02T01:58:00;99854.19;;;21.34;62.11
35704;BME280;21820;51.112;13.762;2022-11-02T02:00:26;99869.50;;;21.38;61.47
35704;BME280;21820;51.112;13.762;2022-11-02T02:03:06;99868.41;;;21.41;61.63
35704;BME280;21820;51.112;13.762;2022-11-02T02:05:32;99871.84;;;21.41;61.48
35704;BME280;21820;51.112;13.762;2022-11-02T02:07:58;99869.22;;;21.41;62.25
35704;BME280;21820;51.112;13.762;2022-11-02T02:10:24;99871.00;;;21.41;61.65
35704;BME280;21820;51.112;13.762;2022-11-02T02:12:50;99866.75;;;21.40;61.83
35704;BME280;21820;51.112;13.762;2022-11-02T02:15:15;99866.88;;;21.38;61.81
35704;BME280;21820;51.112;13.762;2022-11-02T02:17:46;99869.22;;;21.41;61.41
35704;BME280;21820;51.112;13.762;2022-11-02T02:20:18;99859.84;;;21.39;61.67
35704;BME280;21820;51.112;13.762;2022-11-02T02:25:32;99862.31;;;21.40;61.44
35704;BME280;21820;51.112;13.762;2022-11-02T02:30:36;99867.47;;;21.42;61.63
35704;BME280;21820;51.112;13.762;2022-11-02T02:33:04;99865.66;;;21.42;62.04
35704;BME280;21820;51.112;13.762;2022-11-02T02:35:34;99861.38;;;21.41;61.96
35704;BME280;21820;51.112;13.762;2022-11-02T02:38:03;99865.66;;;21.42;61.71
35704;BME280;21820;51.112;13.762;2022-11-02T02:40:34;99849.63;;;21.26;61.76
35704;BME280;21820;51.112;13.762;2022-11-02T02:48:09;99863.03;;;21.42;61.65
35704;BME280;21820;51.112;13.762;2022-11-02T02:50:48;99858.78;;;21.41;61.29
35704;BME280;21820;51.112;13.762;2022-11-02T02:53:14;99864.13;;;21.40;61.91
35704;BME280;21820;51.112;13.762;2022-11-02T02:55:42;99846.59;;;21.31;61.83
35704;BME280;21820;51.112;13.762;2022-11-02T02:58:11;99863.31;;;21.39;61.44
35704;BME280;21820;51.112;13.762;2022-11-02T03:00:37;99870.31;;;21.39;61.45
35704;BME280;21820;51.112;13.762;2022-11-02T03:03:03;99848.53;;;21.29;61.64
35704;BME280;21820;51.112;13.762;2022-11-02T03:05:33;99871.16;;;21.39;61.48
35704;BME280;21820;51.112;13.762;2022-11-02T03:08:00;99873.50;;;21.42;61.13
35704;BME280;21820;51.112;13.762;2022-11-02T03:10:31;99882.31;;;21.41;61.54
35704;BME280;21820;51.112;13.762;2022-11-02T03:15:26;99878.03;;;21.40;61.84
35704;BME280;21820;51.112;13.762;2022-11-02T03:20:33;99863.31;;;21.39;61.27
35704;BME280;21820;51.112;13.762;2022-11-02T03:23:11;99865.78;;;21.41;61.80
35704;BME280;21820;51.112;13.762;2022-11-02T03:26:01;99862.31;;;21.40;61.57
35704;BME280;21820;51.112;13.762;2022-11-02T03:28:26;99864.94;;;21.40;61.48
35704;BME280;21820;51.112;13.762;2022-11-02T03:30:59;99865.91;;;21.39;61.40
35704;BME280;21820;51.112;13.762;2022-11-02T03:33:29;99876.38;;;21.39;61.44
35704;BME280;21820;51.112;13.762;2022-11-02T03:36:01;99871.97;;;21.40;61.76
35704;BME280;21820;51.112;13.762;2022-11-02T03:38:30;99862.59;;;21.37;61.87
35704;BME280;21820;51.112;13.762;2022-11-02T03:40:56;99866.88;;;21.38;61.61
35704;BME280;21820;51.112;13.762;2022-11-02T03:43:23;99870.88;;;21.42;61.50
35704;BME280;21820;51.112;13.762;2022-11-02T03:45:50;99874.88;;;21.37;61.42
35704;BME280;21820;51.112;13.762;2022-11-02T03:48:16;99883.25;;;21.40;61.42
35704;BME280;21820;51.112;13.762;2022-11-02T03:50:45;99883.25;;;21.40;61.77
35704;BME280;21820;51.112;13.762;2022-11-02T03:53:25;99887.81;;;21.38;61.31
35704;BME280;21820;51.112;13.762;2022-11-02T03:55:52;99885.19;;;21.38;61.33
35704;BME280;21820;51.112;13.762;2022-11-02T03:58:19;99881.59;;;21.39;61.70
35704;BME280;21820;51.112;13.762;2022-11-02T04:01:06;99885.19;;;21.38;61.85
35704;BME280;21820;51.112;13.762;2022-11-02T04:03:32;99887.81;;;21.38;61.31
35704;BME280;21820;51.112;13.762;2022-11-02T04:05:57;99893.03;;;21.38;61.74
35704;BME280;21820;51.112;13.762;2022-11-02T04:08:41;99872.63;;;21.32;61.51
35704;BME280;21820;51.112;13.762;2022-11-02T04:11:08;99862.56;;;21.28;61.50
35704;BME280;21820;51.112;13.762;2022-11-02T04:13:51;99884.34;;;21.38;61.70
35704;BME280;21820;51.112;13.762;2022-11-02T04:16:35;99863.78;;;21.24;61.56
35704;BME280;21820;51.112;13.762;2022-11-02T04:19:00;99886.97;;;21.38;61.04
35704;BME280;21820;51.112;13.762;2022-11-02T04:21:44;99874.88;;;21.37;61.44
35704;BME280;21820;51.112;13.762;2022-11-02T04:24:29;99873.91;;;21.38;61.35
35704;BME280;21820;51.112;13.762;2022-11-02T04:27:13;99880.22;;;21.35;61.27
35704;BME280;21820;51.112;13.762;2022-11-02T04:29:39;99878.28;;;21.37;61.76
35704;BME280;21820;51.112;13.762;2022-11-02T04:32:04;99875.94;;;21.34;61.46
35704;BME280;21820;51.112;13.762;2022-11-02T04:34:29;99887.09;;;21.36;61.94
35704;BME280;21820;51.112;13.762;2022-11-02T04:36:54;99879.00;;;21.39;61.36
35704;BME280;21820;51.112;13.762;2022-11-02T04:39:19;99879.97;;;21.38;61.35
35704;BME280;21820;51.112;13.762;2022-11-02T04:41:45;99885.19;;;21.38;61.51
35704;BME280;21820;51.112;13.762;2022-11-02T04:44:11;99874.72;;;21.38;61.72
35704;BME280;21820;51.112;13.762;2022-11-02T04:46:38;99865.34;;;21.36;60.97
35704;BME280;21820;51.112;13.762;2022-11-02T04:49:04;99864.28;;;21.38;61.06
35704;BME280;21820;51.112;13.762;2022-11-02T04:51:30;99864.94;;;21.40;61.23
35704;BME280;21820;51.112;13.762;2022-11-02T04:53:56;99865.06;;;21.39;61.25
35704;BME280;21820;51.112;13.762;2022-11-02T04:56:22;99869.50;;;21.38;61.67
35704;BME280;21820;51.112;13.762;2022-11-02T04:58:48;99869.50;;;21.38;60.97
35704;BME280;21820;51.112;13.762;2022-11-02T05:01:15;99871.41;;;21.36;61.48
35704;BME280;21820;51.112;13.762;2022-11-02T05:03:40;99862.59;;;21.37;61.63
35704;BME280;21820;51.112;13.762;2022-11-02T05:06:05;99852.94;;;21.28;61.45
35704;BME280;21820;51.112;13.762;2022-11-02T05:08:31;99866.19;;;21.36;61.39
35704;BME280;21820;51.112;13.762;2022-11-02T05:10:57;99863.56;;;21.36;61.12
35704;BME280;21820;51.112;13.762;2022-11-02T05:13:23;99860.97;;;21.36;60.99
35704;BME280;21820;51.112;13.762;2022-11-02T05:15:49;99861.94;;;21.35;61.37
35704;BME280;21820;51.112;13.762;2022-11-02T05:18:14;99866.19;;;21.36;60.94
35704;BME280;21820;51.112;13.762;2022-11-02T05:20:39;99868.81;;;21.36;61.51
35704;BME280;21820;51.112;13.762;2022-11-02T05:23:04;99868.81;;;21.36;61.37
35704;BME280;21820;51.112;13.762;2022-11-02T05:25:30;99873.06;;;21.37;61.17
35704;BME280;21820;51.112;13.762;2022-11-02T05:27:56;99856.38;;;21.29;61.52
35704;BME280;21820;51.112;13.762;2022-11-02T05:30:21;99873.06;;;21.37;61.18
35704;BME280;21820;51.112;13.762;2022-11-02T05:32:46;99874.88;;;21.37;61.68
35704;BME280;21820;51.112;13.762;2022-11-02T05:35:12;99878.28;;;21.37;61.52
35704;BME280;21820;51.112;13.762;2022-11-02T05:37:37;99879.13;;;21.38;61.02
35704;BME280;21820;51.112;13.762;2022-11-02T05:40:02;99881.88;;;21.36;61.31
35704;BME280;21820;51.112;13.762;2022-11-02T05:42:28;99879.97;;;21.38;61.37
35704;BME280;21820;51.112;13.762;2022-11-02T05:44:53;99882.59;;;21.38;61.41
35704;BME280;21820;51.112;13.762;2022-11-02T05:47:18;99863.41;;;21.28;61.60
35704;BME280;21820;51.112;13.762;2022-11-02T05:49:44;99879.25;;;21.36;61.09
35704;BME280;21820;51.112;13.762;2022-11-02T05:52:09;99883.53;;;21.37;61.39
35704;BME280;21820;51.112;13.762;2022-11-02T05:54:34;99885.19;;;21.38;61.29
35704;BME280;21820;51.112;13.762;2022-11-02T05:56:59;99878.28;;;21.37;61.38
35704;BME280;21820;51.112;13.762;2022-11-02T05:59:25;99873.91;;;21.38;61.42
35704;BME280;21820;51.112;13.762;2022-11-02T06:01:50;99873.19;;;21.36;60.75
35704;BME280;21820;51.112;13.762;2022-11-02T06:04:15;99875.00;;;21.35;61.63
35704;BME280;21820;51.112;13.762;2022-11-02T06:06:41;99873.91;;;21.38;61.08
35704;BME280;21820;51.112;13.762;2022-11-02T06:09:06;99879.25;;;21.36;61.39
35704;BME280;21820;51.112;13.762;2022-11-02T06:11:31;99881.88;;;21.36;61.05
35704;BME280;21820;51.112;13.762;2022-11-02T06:13:56;99874.03;;;21.36;61.48
35704;BME280;21820;51.112;13.762;2022-11-02T06:16:22;99884.34;;;21.38;61.31
35704;BME280;21820;51.112;13.762;2022-11-02T06:18:47;99893.72;;;21.40;61.39
35704;BME280;21820;51.112;13.762;2022-11-02T06:21:12;99891.50;;;21.36;61.02
35704;BME280;21820;51.112;13.762;2022-11-02T06:23:38;99897.44;;;21.38;61.55
35704;BME280;21820;51.112;13.762;2022-11-02T06:26:04;99895.66;;;21.38;60.82
35704;BME280;21820;51.112;13.762;2022-11-02T06:28:29;99894.81;;;21.38;60.90
35704;BME280;21820;51.112;13.762;2022-11-02T06:30:55;99890.44;;;21.38;61.14
35704;BME280;21820;51.112;13.762;2022-11-02T06:33:20;99886.81;;;21.30;61.27
35704;BME280;21820;51.112;13.762;2022-11-02T06:35:46;99901.81;;;21.37;61.52
35704;BME280;21820;51.112;13.762;2022-11-02T06:38:12;99900.19;;;21.36;61.12
35704;BME280;21820;51.112;13.762;2022-11-02T06:40:37;99899.34;;;21.36;60.97
35704;BME280;21820;51.112;13.762;2022-11-02T06:43:03;99895.78;;;21.37;61.32
35704;BME280;21820;51.112;13.762;2022-11-02T06:45:28;99904.72;;;21.34;61.19
35704;BME280;21820;51.112;13.762;2022-11-02T06:47:53;99901.16;;;21.35;61.12
35704;BME280;21820;51.112;13.762;2022-11-02T06:50:18;99902.22;;;21.33;61.42
35704;BME280;21820;51.112;13.762;2022-11-02T06:52:44;99905.69;;;21.33;61.31
35704;BME280;21820;51.112;13.762;2022-11-02T06:55:10;99904.84;;;21.33;60.99
35704;BME280;21820;51.112;13.762;2022-11-02T06:57:36;99906.13;;;21.38;61.27
35704;BME280;21820;51.112;13.762;2022-11-02T07:00:03;99904.72;;;21.34;61.55
35704;BME280;21820;51.112;13.762;2022-11-02T07:02:29;99898.34;;;21.27;60.72
35704;BME280;21820;51.112;13.762;2022-11-02T07:04:54;99903.88;;;21.34;61.33
35704;BME280;21820;51.112;13.762;2022-11-02T07:07:20;99909.94;;;21.34;60.86
35704;BME280;21820;51.112;13.762;2022-11-02T07:09:45;99903.88;;;21.34;61.15
35704;BME280;21820;51.112;13.762;2022-11-02T07:12:10;99912.38;;;21.26;60.98
35704;BME280;21820;51.112;13.762;2022-11-02T07:14:35;99929.22;;;21.33;60.80
35704;BME280;21820;51.112;13.762;2022-11-02T07:17:01;99921.38;;;21.33;61.50
35704;BME280;21820;51.112;13.762;2022-11-02T07:19:26;99914.88;;;21.28;61.10
35704;BME280;21820;51.112;13.762;2022-11-02T07:21:51;99918.75;;;21.33;61.46
35704;BME280;21820;51.112;13.762;2022-11-02T07:24:16;99906.78;;;21.10;59.82
35704;BME280;21820;51.112;13.762;2022-11-02T07:26:42;99923.13;;;20.71;59.96
35704;BME280;21820;51.112;13.762;2022-11-02T07:29:07;99930.97;;;20.71;60.56
35704;BME280;21820;51.112;13.762;2022-11-02T07:31:32;99922.56;;;20.67;60.58
35704;BME280;21820;51.112;13.762;2022-11-02T07:33:57;99919.06;;;20.78;62.00
35704;BME280;21820;51.112;13.762;2022-11-02T07:36:23;99915.13;;;20.84;62.45
35704;BME280;21820;51.112;13.762;2022-11-02T07:38:48;99912.13;;;20.88;61.93
35704;BME280;21820;51.112;13.762;2022-11-02T07:41:13;99917.09;;;20.91;61.63
35704;BME280;21820;51.112;13.762;2022-11-02T07:43:39;99914.91;;;20.96;62.42
35704;BME280;21820;51.112;13.762;2022-11-02T07:46:04;99916.38;;;21.00;61.73
35704;BME280;21820;51.112;13.762;2022-11-02T07:48:30;99908.38;;;21.02;61.89
35704;BME280;21820;51.112;13.762;2022-11-02T07:50:58;99906.47;;;21.04;61.88
35704;BME280;21820;51.112;13.762;2022-11-02T07:53:24;99909.47;;;20.99;61.78
35704;BME280;21820;51.112;13.762;2022-11-02T07:55:49;99894.34;;;20.82;62.11
35704;BME280;21820;51.112;13.762;2022-11-02T07:58:14;99913.94;;;21.08;61.15
35704;BME280;21820;51.112;13.762;2022-11-02T08:00:39;99907.41;;;21.23;61.70
35704;BME280;21820;51.112;13.762;2022-11-02T08:03:05;99896.81;;;21.25;60.95
35704;BME280;21820;51.112;13.762;2022-11-02T08:05:35;99898.34;;;21.27;61.00
35704;BME280;21820;51.112;13.762;2022-11-02T08:08:02;99905.59;;;21.24;60.91
35704;BME280;21820;51.112;13.762;2022-11-02T08:10:28;99906.19;;;21.27;60.86
35704;BME280;21820;51.112;13.762;2022-11-02T08:12:54;99916.78;;;21.26;61.06
35704;BME280;21820;51.112;13.762;2022-11-02T08:15:19;99917.75;;;21.25;61.11
35704;BME280;21820;51.112;13.762;2022-11-02T08:17:44;99923.81;;;21.25;61.50
35704;BME280;21820;51.112;13.762;2022-11-02T08:20:10;99928.22;;;21.25;61.57
35704;BME280;21820;51.112;13.762;2022-11-02T08:22:38;99922.84;;;21.26;61.28
35704;BME280;21820;51.112;13.762;2022-11-02T08:25:04;99929.72;;;21.27;61.20
35704;BME280;21820;51.112;13.762;2022-11-02T08:27:29;99926.44;;;21.25;61.67
35704;BME280;21820;51.112;13.762;2022-11-02T08:29:55;99931.53;;;21.27;61.35
35704;BME280;21820;51.112;13.762;2022-11-02T08:32:20;99921.44;;;21.22;61.93
35704;BME280;21820;51.112;13.762;2022-11-02T08:34:45;99913.59;;;21.22;61.65
35704;BME280;21820;51.112;13.762;2022-11-02T08:37:10;99921.28;;;21.24;61.85
35704;BME280;21820;51.112;13.762;2022-11-02T08:39:36;99917.88;;;21.23;61.32
35704;BME280;21820;51.112;13.762;2022-11-02T08:42:01;99921.44;;;21.22;61.50
35704;BME280;21820;51.112;13.762;2022-11-02T08:44:26;99923.25;;;21.22;62.01
35704;BME280;21820;51.112;13.762;2022-11-02T08:46:51;99920.75;;;21.20;61.85
35704;BME280;21820;51.112;13.762;2022-11-02T08:49:17;99923.91;;;21.24;62.05
35704;BME280;21820;51.112;13.762;2022-11-02T08:51:43;99912.66;;;21.23;62.04
35704;BME280;21820;51.112;13.762;2022-11-02T08:54:08;99925.72;;;21.23;61.18
35704;BME280;21820;51.112;13.762;2022-11-02T08:56:33;99922.25;;;21.23;61.51
35704;BME280;21820;51.112;13.762;2022-11-02T08:58:59;99922.13;;;21.24;61.58
35704;BME280;21820;51.112;13.762;2022-11-02T09:01:24;99927.50;;;21.23;61.96
35704;BME280;21820;51.112;13.762;2022-11-02T09:03:49;99926.66;;;21.22;61.63
35704;BME280;21820;51.112;13.762;2022-11-02T09:06:14;99928.34;;;21.23;62.00
35704;BME280;21820;51.112;13.762;2022-11-02T09:08:40;99913.72;;;21.21;62.05
35704;BME280;21820;51.112;13.762;2022-11-02T09:11:05;99921.97;;;21.16;61.21
35704;BME280;21820;51.112;13.762;2022-11-02T09:13:30;99914.28;;;21.24;61.56
35704;BME280;21820;51.112;13.762;2022-11-02T09:15:57;99924.75;;;21.24;61.98
